Meeting de Noël de Strasbourg

Départementale

STRASBOURG

Du Samedi 17 Decembre 2011 au Dimanche 18 Decembre 2011

Bassin de 25m

50 Papillon Messieurs

Séries

Nom Année Club Pays Temps Points Niv.
1 NUSS Steve 1992 AC MOLSHEIM MUTZIG FRA 0:27:45 1127
2 FERREIRA David 1989 ERSTEIN AQUATIC CLUB FRA 0:27:77 1108
3 DESMONS Fabien 1991 CN OSTWALD FRA 0:27:79 1107
4 PFLIEGER Thomas 1993 SR CERNAY FRA 0:28:10 1089
5 FAULHABER Kévin 1991 CN OSTWALD FRA 0:28:14 1086
6 DRIDI Riadh 1987 ASPTT STRASBOURG FRA 0:28:44 1069
7 MILANO Hadrien 1994 CN ILE DU RHIN FRA 0:28:51 1065
8 OUANOUFI Selim 1994 ASPTT STRASBOURG FRA 0:28:61 1059
9 MONTAGNE François-Joseph 1983 ASPTT STRASBOURG FRA 0:28:65 1056
10 DENIER Antoine 1993 AC MOLSHEIM MUTZIG FRA 0:28:74 1051
11 NUSS Mickael 1995 AC MOLSHEIM MUTZIG FRA 0:28:74 1051
12 KELLER Ludovic 1994 AC MOLSHEIM MUTZIG FRA 0:28:82 1047
13 RAPP Antoine 1997 ERSTEIN AQUATIC CLUB FRA 0:29:01 1036
14 HOEN Vincent 1995 CN OSTWALD FRA 0:29:02 1035
15 NGO Romain 1996 AC MOLSHEIM MUTZIG FRA 0:29:57 1004
16 KRANNITZ Paul 1996 VAGUE BETSCHDORF-DRACHENBRONN FRA 0:29:63 1000
17 NIKOLAY Mathieu 1991 CN OSTWALD FRA 0:29:67 998
18 COUTY Arnaud 1994 CN ILE DU RHIN FRA 0:30:16 970
19 WILCOX Tim 1992 ALLEMAGNE GER 0:30:49 952
20 CHASSAGNON Gael 1997 ERSTEIN AQUATIC CLUB FRA 0:30:55 949
21 FAULHABER Michael 1996 CN OSTWALD FRA 0:30:69 941
22 KOESTEL Jérôme 1995 CN OSTWALD FRA 0:30:82 934
23 MEYER Christophe 1995 THANN OLYMPIC N FRA 0:31:04 922
24 VILLANOVA Luc 1989 ASPTT STRASBOURG FRA 0:31:14 917
25 WALLISER Kilian 1994 SN HAGUENAU FRA 0:31:71 886
26 GREDER Valentin 1995 SR CERNAY FRA 0:32:11 865
27 MALACHI Constantin 1997 LÉO-L. SCHILTIGHEIM-BISCHHEIM FRA 0:32:13 864
28 LEGRAND Guillaume 1989 CN OSTWALD FRA 0:32:13 864
29 MORINIERE Dorian 1998 CN OSTWALD FRA 0:32:14 863
30 SEDRUE Julien 1997 AC MOLSHEIM MUTZIG FRA 0:32:19 861
31 DEBROIZE Denis 1995 ALLEMAGNE GER 0:32:34 853
32 WITTNER Xavier 1997 AC MOLSHEIM MUTZIG FRA 0:32:39 850
33 PARAMONOV Dimitri 1996 LÉO-L. SCHILTIGHEIM-BISCHHEIM FRA 0:32:74 832
34 SAHLI Ahmed 1980 SN HAGUENAU FRA 0:32:79 830
35 ANDRES Valentin 1995 LÉO-L. SCHILTIGHEIM-BISCHHEIM FRA 0:32:85 826
36 FORJONNEL Julien 1997 CN ILE DU RHIN FRA 0:33:03 817
37 JOLIVET Jérémy 1984 ASPTT STRASBOURG FRA 0:33:11 813
38 FURET Amaury 1994 THANN OLYMPIC N FRA 0:33:30 803
39 SCHMITT Cédric 1988 SN HAGUENAU FRA 0:33:50 793
40 SCHMITT Victor 1999 NATATION HOCHFELDEN FRA 0:33:52 792
41 DEWULF Mickael 1995 THANN OLYMPIC N FRA 0:33:70 783
42 LECLERC Raphael 1996 ERSTEIN AQUATIC CLUB FRA 0:33:95 771
43 WEBER Carl-alexandre 1997 LÉO-L. SCHILTIGHEIM-BISCHHEIM FRA 0:34:04 766
44 HOFF Anthony 1998 AC MOLSHEIM MUTZIG FRA 0:34:16 760
45 SAUTER Robin 1994 THANN OLYMPIC N FRA 0:34:38 750
46 WILHELM Léo 2000 ERSTEIN AQUATIC CLUB FRA 0:34:66 736
47 BELKOT Florian 1996 ALLEMAGNE GER 0:34:80 729
48 SCHNEIDER Arthur 2000 ASPTT STRASBOURG FRA 0:35:47 697
49 IONESCU Stefan 2000 SN HAGUENAU FRA 0:35:60 691
50 NONNENMACHER Quentin 1999 AC MOLSHEIM MUTZIG FRA 0:35:96 674
51 MARTINEZ Vincent 1999 AC MOLSHEIM MUTZIG FRA 0:36:91 631
52 CALDARE Jan 1999 CN OSTWALD FRA 0:37:29 614
53 CHAMPTOUSSEL Florian 1998 NATATION HOCHFELDEN FRA 0:37:85 589
54 HENCHES Manahune 1999 LÉO-L. SCHILTIGHEIM-BISCHHEIM FRA 0:39:43 523
55 DAYA Ilyes 2000 C.N DU FLORIVAL FRA 0:40:00 500
56 RIBER Victor 2000 C.N DU FLORIVAL FRA 0:40:99 461
57 DIET Mathis 2000 AC MOLSHEIM MUTZIG FRA 0:41:86 428
58 GRAUFFEL Vincent 1999 NATATION HOCHFELDEN FRA 0:42:02 422
59 RUFFINONI Baptiste 1998 KAYSERSBERG NATATION FRA 0:42:12 419
60 ALVES-SCHERRER Mathieu 2000 AC MOLSHEIM MUTZIG FRA 0:42:51 405
61 SOUDIER Maxime 1999 AC MOLSHEIM MUTZIG FRA 0:43:58 367
62 BRUNET Mathis 2000 AC MOLSHEIM MUTZIG FRA 0:44:37 340
63 PERROTEY Alexandre 1999 AC MOLSHEIM MUTZIG FRA 0:46:11 285
64 SAVARY Adrien 2000 CN ILE DU RHIN FRA 0:46:86 263
65 LE CHEVILLIER Malo 2000 NATATION HOCHFELDEN FRA 0:47:00 259
66 WITT Jonathan 2000 AC MOLSHEIM MUTZIG FRA 0:49:75 186
67 BAUMANN Julien 1994 CN OSTWALD FRA - Disq.
68 JAMAI MASROUR Bouchta 1958 SN HAGUENAU FRA - Disq.
69 SCHNEIDER Nicolas 2000 AC MOLSHEIM MUTZIG FRA - Disq.
70 MULLER Matthieu 1993 CN ILE DU RHIN FRA - Disq.
71 BESSERER Thibaud 1998 C.N DU FLORIVAL FRA - Disq.
72 DAHLEN Simon 1997 NATATION HOCHFELDEN FRA - Disq.
73 HEZARD Justin 1999 ERSTEIN AQUATIC CLUB FRA - Disq.

Finale A

Nom Année Club Pays Temps Points Niv.
1 NUSS Steve 1992 AC MOLSHEIM MUTZIG FRA 0:27:14 1146
2 DESMONS Fabien 1991 CN OSTWALD FRA 0:27:65 1115
3 PFLIEGER Thomas 1993 SR CERNAY FRA 0:28:18 1084
4 MONTAGNE François-Joseph 1983 ASPTT STRASBOURG FRA 0:28:32 1076
5 MILANO Hadrien 1994 CN ILE DU RHIN FRA 0:28:47 1067
6 RAPP Antoine 1997 ERSTEIN AQUATIC CLUB FRA 0:28:75 1051
7 OUANOUFI Selim 1994 ASPTT STRASBOURG FRA 0:29:35 1016
8 CHASSAGNON Gael 1997 ERSTEIN AQUATIC CLUB FRA 0:30:55 949
9 MORINIERE Dorian 1998 CN OSTWALD FRA 0:32:37 851
10 MALACHI Constantin 1997 LÉO-L. SCHILTIGHEIM-BISCHHEIM FRA 0:32:45 847
11 SEDRUE Julien 1997 AC MOLSHEIM MUTZIG FRA 0:32:49 845
12 WITTNER Xavier 1997 AC MOLSHEIM MUTZIG FRA 0:33:07 815

Finale B

Nom Année Club Pays Temps Points Niv.
1 DENIER Antoine 1993 AC MOLSHEIM MUTZIG FRA 0:28:27 1079
2 NUSS Mickael 1995 AC MOLSHEIM MUTZIG FRA 0:28:47 1067
3 HOEN Vincent 1995 CN OSTWALD FRA 0:28:48 1066
4 NGO Romain 1996 AC MOLSHEIM MUTZIG FRA 0:29:30 1019
5 KRANNITZ Paul 1996 VAGUE BETSCHDORF-DRACHENBRONN FRA 0:29:54 1005
6 NIKOLAY Mathieu 1991 CN OSTWALD FRA 0:30:63 944
7 WEBER Carl-alexandre 1997 LÉO-L. SCHILTIGHEIM-BISCHHEIM FRA 0:32:92 823
8 SCHMITT Victor 1999 NATATION HOCHFELDEN FRA 0:33:84 776
9 HOFF Anthony 1998 AC MOLSHEIM MUTZIG FRA 0:34:62 738
10 WILHELM Léo 2000 ERSTEIN AQUATIC CLUB FRA 0:34:88 725
11 SCHNEIDER Arthur 2000 ASPTT STRASBOURG FRA 0:36:04 671
12 IONESCU Stefan 2000 SN HAGUENAU FRA 0:36:08 669